createdAt,value
2022-07-30T00:03:22.786Z,2.08
2022-07-30T00:08:34.206Z,1.25
2022-07-30T00:13:41.995Z,1.30
2022-07-30T00:18:47.977Z,2.00
2022-07-30T00:24:01.542Z,1.50
2022-07-30T00:29:06.187Z,1.88
2022-07-30T00:39:25.958Z,1.50
2022-07-30T00:44:31.130Z,1.75
2022-07-30T00:49:44.454Z,1.35
2022-07-30T00:54:49.535Z,1.80
2022-07-30T00:59:53.334Z,1.60
2022-07-30T01:05:06.756Z,1.90
2022-07-30T01:10:25.592Z,2.13
2022-07-30T01:15:38.260Z,2.08
2022-07-30T01:21:03.165Z,1.55
2022-07-30T01:26:19.268Z,1.70
2022-07-30T01:31:33.596Z,1.88
2022-07-30T01:36:48.735Z,2.38
2022-07-30T01:42:08.604Z,2.05
2022-07-30T01:47:14.633Z,1.67
2022-07-30T01:52:25.418Z,2.10
2022-07-30T01:57:33.229Z,2.08
2022-07-30T02:02:38.610Z,1.83
2022-07-30T02:07:46.048Z,1.98
2022-07-30T02:12:57.212Z,1.98
2022-07-30T02:18:10.501Z,1.70
2022-07-30T02:23:21.489Z,1.70
2022-07-30T02:28:32.779Z,2.60
2022-07-30T02:33:48.700Z,1.35
2022-07-30T02:38:56.371Z,2.67
2022-07-30T02:44:04.939Z,2.30
2022-07-30T02:49:17.029Z,2.00
2022-07-30T02:54:21.234Z,2.70
2022-07-30T02:59:35.210Z,2.10
2022-07-30T03:04:39.978Z,2.63
2022-07-30T03:09:52.548Z,2.35
2022-07-30T03:14:57.971Z,1.97
2022-07-30T03:20:08.447Z,2.78
2022-07-30T03:25:14.878Z,2.60
2022-07-30T03:30:20.421Z,2.80
2022-07-30T03:35:26.140Z,2.40
2022-07-30T03:40:33.545Z,2.97
2022-07-30T03:45:45.994Z,3.00
2022-07-30T03:50:54.566Z,2.95
2022-07-30T03:56:10.570Z,3.15
2022-07-30T04:01:26.629Z,3.03
2022-07-30T04:06:40.507Z,3.33
2022-07-30T04:11:45.391Z,3.28
2022-07-30T04:16:56.741Z,3.28
2022-07-30T04:22:05.175Z,3.15
2022-07-30T04:27:09.475Z,3.05
2022-07-30T04:32:30.180Z,3.33
2022-07-30T04:37:39.923Z,2.95
2022-07-30T04:42:43.287Z,3.08
2022-07-30T04:47:48.627Z,3.20
2022-07-30T04:58:32.388Z,3.33
2022-07-30T05:03:38.318Z,2.65
2022-07-30T05:08:44.389Z,3.15
2022-07-30T05:14:05.519Z,1.75
2022-07-30T05:19:10.907Z,2.65
2022-07-30T05:24:17.866Z,2.97
2022-07-30T05:29:23.120Z,2.70
2022-07-30T05:34:33.041Z,2.97
2022-07-30T05:39:58.892Z,3.10
2022-07-30T05:45:16.114Z,2.17
2022-07-30T05:50:26.181Z,3.22
2022-07-30T05:55:30.722Z,3.22
2022-07-30T06:00:54.716Z,3.20
2022-07-30T06:05:58.744Z,1.40
2022-07-30T06:11:03.346Z,3.05
2022-07-30T06:16:32.048Z,3.25
2022-07-30T06:22:01.839Z,2.85
2022-07-30T06:33:08.489Z,2.75
2022-07-30T06:43:59.555Z,3.40
2022-07-30T06:49:10.232Z,4.50
2022-07-30T06:54:42.418Z,4.18
2022-07-30T06:59:57.185Z,4.20
2022-07-30T07:05:19.671Z,4.15
2022-07-30T07:10:33.559Z,4.75
2022-07-30T07:15:47.918Z,4.70
2022-07-30T07:21:01.025Z,3.67
2022-07-30T07:26:16.361Z,4.63
2022-07-30T07:32:06.919Z,4.60
2022-07-30T07:37:07.192Z,4.68
2022-07-30T07:42:12.815Z,7.30
2022-07-30T07:47:27.189Z,4.88
2022-07-30T07:52:45.681Z,4.53
2022-07-30T07:57:52.380Z,5.47
2022-07-30T08:02:58.502Z,5.43
2022-07-30T08:08:05.157Z,5.40
2022-07-30T08:18:47.599Z,5.10
2022-07-30T08:23:59.589Z,5.03
2022-07-30T08:29:08.644Z,4.88
2022-07-30T08:40:04.188Z,4.18
2022-07-30T08:45:14.089Z,4.40
2022-07-30T08:50:23.673Z,4.25
2022-07-30T09:01:09.081Z,4.10
2022-07-30T09:06:21.386Z,3.80
2022-07-30T09:11:39.519Z,4.22
2022-07-30T09:16:52.655Z,4.43
2022-07-30T09:22:01.568Z,3.45
2022-07-30T09:32:35.864Z,3.58
2022-07-30T09:37:46.279Z,4.05
2022-07-30T09:43:11.808Z,3.53
2022-07-30T09:48:25.519Z,3.67
2022-07-30T09:53:29.598Z,3.55
2022-07-30T10:04:17.990Z,3.58
2022-07-30T10:09:30.242Z,3.10
2022-07-30T10:14:42.303Z,3.05
2022-07-30T10:25:16.341Z,3.00
2022-07-30T10:30:27.992Z,3.08
2022-07-30T10:35:47.393Z,2.80
2022-07-30T10:41:04.549Z,3.70
2022-07-30T10:46:21.945Z,2.60
2022-07-30T10:51:59.891Z,2.50
2022-07-30T10:57:32.409Z,3.33
2022-07-30T11:02:42.783Z,2.80
2022-07-30T11:07:50.182Z,2.60
2022-07-30T11:13:01.731Z,2.50
2022-07-30T11:18:13.629Z,1.92
2022-07-30T11:23:47.941Z,3.00
2022-07-30T11:29:32.830Z,2.30
2022-07-30T11:34:50.209Z,2.47
2022-07-30T11:40:16.538Z,2.50
2022-07-30T11:45:41.790Z,2.65
2022-07-30T11:56:25.331Z,2.35
2022-07-30T12:01:33.255Z,2.40
2022-07-30T12:12:29.572Z,2.17
2022-07-30T12:18:05.628Z,2.00
2022-07-30T12:23:23.873Z,2.50
2022-07-30T12:28:50.969Z,2.20
2022-07-30T12:34:03.751Z,1.95
2022-07-30T12:39:26.602Z,1.70
2022-07-30T12:50:22.217Z,2.03
2022-07-30T12:55:37.992Z,2.35
2022-07-30T13:00:54.209Z,2.00
2022-07-30T13:06:29.254Z,2.17
2022-07-30T13:11:49.036Z,2.47
2022-07-30T13:17:05.455Z,2.08
2022-07-30T13:22:14.123Z,2.42
2022-07-30T13:27:23.350Z,2.20
2022-07-30T13:32:41.487Z,2.13
2022-07-30T13:38:01.121Z,2.30
2022-07-30T13:43:07.714Z,2.38
2022-07-30T13:48:39.800Z,2.20
2022-07-30T13:53:50.341Z,2.30
2022-07-30T13:58:59.589Z,2.13
2022-07-30T14:04:10.715Z,2.55
2022-07-30T14:09:33.649Z,2.25
2022-07-30T14:15:17.658Z,2.83
2022-07-30T14:20:29.842Z,2.30
2022-07-30T14:25:42.787Z,2.47
2022-07-30T14:30:58.421Z,2.60
2022-07-30T14:36:10.344Z,2.22
2022-07-30T14:41:16.321Z,2.30
2022-07-30T14:46:20.155Z,3.15
2022-07-30T14:51:35.906Z,2.03
2022-07-30T14:56:43.077Z,2.00
2022-07-30T15:01:55.350Z,2.03
2022-07-30T15:07:12.460Z,2.05
2022-07-30T15:12:23.493Z,2.20
2022-07-30T15:23:20.005Z,2.08
2022-07-30T15:28:28.810Z,2.30
2022-07-30T15:33:49.830Z,2.60
2022-07-30T15:39:08.731Z,2.20
2022-07-30T15:44:29.531Z,1.90
2022-07-30T15:49:44.701Z,1.90
2022-07-30T16:00:25.937Z,2.00
2022-07-30T16:05:51.476Z,1.83
2022-07-30T16:11:05.552Z,1.90
2022-07-30T16:16:18.799Z,1.85
2022-07-30T16:21:45.029Z,1.67
2022-07-30T16:26:59.304Z,1.55
2022-07-30T16:32:07.086Z,2.92
2022-07-30T16:37:12.390Z,1.90
2022-07-30T16:42:35.618Z,1.90
2022-07-30T16:47:45.379Z,2.63
2022-07-30T16:52:52.293Z,2.42
2022-07-30T16:58:07.459Z,2.08
2022-07-30T17:03:20.067Z,2.17
2022-07-30T17:08:35.388Z,3.58
2022-07-30T17:13:58.408Z,2.15
2022-07-30T17:19:14.468Z,2.97
2022-07-30T17:24:28.769Z,5.78
2022-07-30T17:29:50.326Z,2.50
2022-07-30T17:35:13.738Z,3.13
2022-07-30T17:40:29.254Z,2.70
2022-07-30T17:45:39.896Z,2.58
2022-07-30T17:50:45.630Z,2.65
2022-07-30T17:56:25.540Z,2.45
2022-07-30T18:01:49.282Z,2.28
2022-07-30T18:06:58.691Z,2.55
2022-07-30T18:12:05.427Z,2.80
2022-07-30T18:17:19.068Z,3.90
2022-07-30T18:28:23.776Z,2.58
2022-07-30T18:33:36.611Z,2.67
2022-07-30T18:38:46.630Z,3.67
2022-07-30T18:43:54.876Z,3.05
2022-07-30T18:49:33.835Z,3.83
2022-07-30T18:54:54.621Z,4.20
2022-07-30T19:00:01.036Z,2.85
2022-07-30T19:05:26.830Z,3.40
2022-07-30T19:10:46.188Z,3.00
2022-07-30T19:15:56.610Z,3.60
2022-07-30T19:26:57.351Z,3.28
2022-07-30T19:32:08.930Z,3.13
2022-07-30T19:37:21.153Z,3.63
2022-07-30T19:42:28.878Z,3.55
2022-07-30T19:47:42.633Z,5.60
2022-07-30T19:53:19.535Z,3.88
2022-07-30T20:09:19.909Z,3.75
2022-07-30T20:14:34.544Z,3.75
2022-07-30T20:19:47.827Z,4.40
2022-07-30T20:24:51.958Z,4.78
2022-07-30T20:30:00.160Z,4.95
2022-07-30T20:35:16.108Z,5.07
2022-07-30T20:40:23.562Z,4.93
2022-07-30T20:45:53.910Z,5.20
2022-07-30T20:51:09.493Z,5.32
2022-07-30T20:56:14.675Z,6.03
2022-07-30T21:01:26.841Z,8.73
2022-07-30T21:06:34.721Z,5.80
2022-07-30T21:11:43.771Z,5.55
2022-07-30T21:16:56.694Z,6.13
2022-07-30T21:22:05.002Z,4.97
2022-07-30T21:27:18.983Z,5.32
2022-07-30T21:32:25.865Z,6.25
2022-07-30T21:37:36.414Z,5.03
2022-07-30T21:42:48.158Z,5.50
2022-07-30T21:48:01.624Z,5.38
2022-07-30T21:53:09.240Z,4.72
2022-07-30T21:58:23.949Z,4.82
2022-07-30T22:08:58.386Z,5.28
2022-07-30T22:14:08.141Z,5.80
2022-07-30T22:19:17.213Z,5.63
2022-07-30T22:24:30.387Z,5.80
2022-07-30T22:34:47.755Z,5.35
2022-07-30T22:39:54.304Z,5.53
2022-07-30T22:45:04.197Z,4.60
2022-07-30T22:50:17.568Z,4.63
2022-07-30T22:55:29.632Z,4.68
2022-07-30T23:00:33.985Z,5.10
2022-07-30T23:05:41.093Z,4.55
2022-07-30T23:11:02.018Z,4.85
2022-07-30T23:12:28.191Z,5.68
2022-07-30T23:16:06.909Z,4.85
2022-07-30T23:21:16.064Z,4.40
2022-07-30T23:26:22.001Z,4.57
2022-07-30T23:31:26.968Z,4.68
2022-07-30T23:36:33.918Z,4.47
2022-07-30T23:41:39.799Z,4.47
2022-07-30T23:46:46.562Z,4.80
2022-07-30T23:52:06.641Z,5.10
2022-07-30T23:57:12.225Z,4.63
